createdAt,value
2023-04-17T00:00:18.335Z,14.3
2023-04-17T00:01:26.659Z,14.3
2023-04-17T00:02:35.302Z,11.2
2023-04-17T00:03:43.644Z,11.2
2023-04-17T00:04:51.894Z,11.2
2023-04-17T00:06:00.400Z,10.2
2023-04-17T00:07:08.754Z,10.2
2023-04-17T00:08:17.080Z,10.2
2023-04-17T00:09:25.638Z,10.4
2023-04-17T00:10:33.950Z,10.4
2023-04-17T00:11:42.284Z,10.4
2023-04-17T00:12:50.836Z,9.6
2023-04-17T00:13:59.178Z,9.6
2023-04-17T00:15:07.501Z,9.6
2023-04-17T00:16:16.084Z,9.1
2023-04-17T00:17:24.405Z,9.1
2023-04-17T00:18:32.725Z,9.1
2023-04-17T00:19:41.284Z,9.2
2023-04-17T00:20:49.624Z,9.2
2023-04-17T00:21:57.967Z,9.2
2023-04-17T00:23:06.502Z,10.1
2023-04-17T00:24:14.831Z,10.1
2023-04-17T00:25:23.190Z,10.1
2023-04-17T00:26:31.696Z,10.2
2023-04-17T00:27:40.030Z,10.2
2023-04-17T00:28:48.369Z,10.2
2023-04-17T00:29:56.920Z,10.4
2023-04-17T00:31:05.291Z,10.4
2023-04-17T00:32:13.601Z,10.4
2023-04-17T00:33:22.125Z,10.7
2023-04-17T00:34:30.471Z,10.7
2023-04-17T00:35:38.804Z,10.7
2023-04-17T00:36:47.350Z,10.2
2023-04-17T00:37:55.680Z,10.2
2023-04-17T00:39:04.006Z,10.2
2023-04-17T00:40:12.545Z,11.2
2023-04-17T00:41:20.899Z,11.2
2023-04-17T00:42:29.221Z,11.2
2023-04-17T00:43:37.768Z,10.8
2023-04-17T00:44:46.072Z,10.8
2023-04-17T00:45:54.440Z,10.8
2023-04-17T00:47:02.957Z,11.4
2023-04-17T00:48:11.292Z,11.4
2023-04-17T00:49:19.613Z,11.4
2023-04-17T00:50:28.177Z,12.7
2023-04-17T00:51:36.489Z,12.7
2023-04-17T00:52:44.827Z,12.7
2023-04-17T00:53:53.387Z,13.3
2023-04-17T00:55:01.721Z,13.3
2023-04-17T00:56:10.048Z,13.3
2023-04-17T00:57:18.884Z,13.4
2023-04-17T00:58:27.174Z,13.4
2023-04-17T00:59:35.512Z,13.4
2023-04-17T01:00:44.094Z,13.6
2023-04-17T01:01:52.418Z,13.6
2023-04-17T01:03:00.842Z,13.6
2023-04-17T01:04:09.312Z,15.3
2023-04-17T01:05:17.598Z,15.3
2023-04-17T01:06:25.932Z,15.3
2023-04-17T01:07:34.499Z,14.7
2023-04-17T01:08:42.808Z,14.7
2023-04-17T01:09:51.136Z,14.7
2023-04-17T01:10:59.688Z,14.8
2023-04-17T01:12:08.029Z,14.8
2023-04-17T01:13:16.397Z,14.8
2023-04-17T01:14:24.895Z,14.5
2023-04-17T01:15:33.258Z,14.5
2023-04-17T01:16:41.670Z,14.5
2023-04-17T01:17:50.183Z,14.1
2023-04-17T01:18:58.477Z,14.1
2023-04-17T01:20:06.813Z,14.1
2023-04-17T01:21:15.351Z,13.7
2023-04-17T01:22:23.694Z,13.7
2023-04-17T01:23:32.024Z,13.7
2023-04-17T01:24:40.560Z,12.5
2023-04-17T01:25:48.896Z,12.5
2023-04-17T01:26:57.243Z,12.5
2023-04-17T01:28:05.780Z,12.8
2023-04-17T01:29:14.125Z,12.8
2023-04-17T01:30:22.428Z,12.8
2023-04-17T01:31:31.032Z,10.9
2023-04-17T01:32:39.345Z,10.9
2023-04-17T01:33:47.661Z,10.9
2023-04-17T01:34:56.190Z,11.3
2023-04-17T01:36:04.523Z,11.3
2023-04-17T01:37:12.866Z,11.3
2023-04-17T01:38:21.416Z,9.6
2023-04-17T01:39:29.745Z,9.6
2023-04-17T01:40:38.080Z,9.6
2023-04-17T01:41:46.640Z,9.7
2023-04-17T01:42:54.954Z,9.7
2023-04-17T01:44:03.296Z,9.7
2023-04-17T01:45:11.932Z,8
2023-04-17T01:46:20.213Z,8
2023-04-17T01:47:28.545Z,8
2023-04-17T01:48:37.037Z,8
2023-04-17T01:49:45.381Z,8
2023-04-17T01:50:53.717Z,8
2023-04-17T01:52:02.253Z,7.8
2023-04-17T01:53:10.599Z,7.8
2023-04-17T01:54:18.943Z,7.8
2023-04-17T01:55:27.464Z,7.9
2023-04-17T01:56:35.798Z,7.9
2023-04-17T01:57:44.131Z,7.9
2023-04-17T01:58:52.675Z,7.6
2023-04-17T02:00:01.010Z,7.6
2023-04-17T02:01:09.367Z,7.6
2023-04-17T02:02:17.991Z,6.9
2023-04-17T02:03:26.379Z,6.9
2023-04-17T02:04:34.586Z,6.9
2023-04-17T02:05:43.095Z,7.8
2023-04-17T02:06:51.430Z,7.8
2023-04-17T02:07:59.753Z,7.8
2023-04-17T02:09:08.416Z,8.8
2023-04-17T02:10:16.642Z,8.8
2023-04-17T02:11:24.979Z,8.8
2023-04-17T02:12:33.513Z,10.1
2023-04-17T02:13:41.867Z,10.1
2023-04-17T02:14:50.189Z,10.1
2023-04-17T02:15:58.745Z,11.2
2023-04-17T02:17:07.086Z,11.2
2023-04-17T02:18:15.417Z,11.2
2023-04-17T02:19:23.936Z,13
2023-04-17T02:20:32.304Z,13
2023-04-17T02:21:40.610Z,13
2023-04-17T02:22:49.141Z,14.4
2023-04-17T02:23:57.487Z,14.4
2023-04-17T02:25:05.813Z,14.4
2023-04-17T02:26:14.374Z,14.5
2023-04-17T02:27:22.704Z,14.5
2023-04-17T02:28:31.033Z,14.5
2023-04-17T02:29:39.572Z,14.9
2023-04-17T02:30:47.913Z,14.9
2023-04-17T02:31:56.240Z,14.9
2023-04-17T02:33:04.867Z,16.5
2023-04-17T02:34:13.104Z,16.5
2023-04-17T02:35:21.435Z,16.5
2023-04-17T02:36:29.975Z,17.5
2023-04-17T02:37:38.308Z,17.5
2023-04-17T02:38:46.631Z,17.5
2023-04-17T02:39:55.181Z,17.9
2023-04-17T02:41:03.525Z,17.9
2023-04-17T02:42:11.848Z,17.9
2023-04-17T02:43:20.387Z,16
2023-04-17T02:44:28.725Z,16
2023-04-17T02:45:37.058Z,16
2023-04-17T02:46:45.630Z,16.6
2023-04-17T02:47:53.991Z,16.6
2023-04-17T02:49:02.293Z,16.6
2023-04-17T02:50:10.806Z,17.299999
2023-04-17T02:51:19.142Z,17.299999
2023-04-17T02:52:27.487Z,17.299999
2023-04-17T02:53:36.032Z,17.5
2023-04-17T02:54:44.370Z,17.5
2023-04-17T02:55:52.701Z,17.5
2023-04-17T02:57:01.238Z,17.299999
2023-04-17T02:58:09.569Z,17.299999
2023-04-17T02:59:17.901Z,17.299999
2023-04-17T03:00:26.446Z,18.4
2023-04-17T03:01:34.915Z,18.4
2023-04-17T03:02:43.225Z,18.4
2023-04-17T03:03:51.759Z,17.799999
2023-04-17T03:04:59.992Z,17.799999
2023-04-17T03:06:08.299Z,17.799999
2023-04-17T03:07:16.836Z,18.1
2023-04-17T03:08:25.173Z,18.1
2023-04-17T03:09:33.490Z,18.1
2023-04-17T03:10:42.049Z,18.700001
2023-04-17T03:11:50.395Z,18.700001
2023-04-17T03:12:58.721Z,18.700001
2023-04-17T03:14:07.251Z,17.6
2023-04-17T03:15:15.591Z,17.6
2023-04-17T03:16:24.000Z,17.6
2023-04-17T03:17:32.483Z,16.1
2023-04-17T03:18:40.827Z,16.1
2023-04-17T03:19:49.169Z,16.1
2023-04-17T03:20:57.716Z,15.3
2023-04-17T03:22:06.015Z,15.3
2023-04-17T03:23:14.331Z,15.3
2023-04-17T03:24:22.878Z,17.299999
2023-04-17T03:25:31.225Z,17.299999
2023-04-17T03:26:39.569Z,17.299999
2023-04-17T03:27:48.089Z,17.6
2023-04-17T03:28:56.426Z,17.6
2023-04-17T03:30:04.774Z,17.6
2023-04-17T03:31:13.316Z,17.9
2023-04-17T03:32:21.651Z,17.9
2023-04-17T03:33:29.974Z,17.9
2023-04-17T03:34:38.508Z,17.1
2023-04-17T03:35:46.857Z,17.1
2023-04-17T03:36:55.391Z,17.1
2023-04-17T03:38:03.746Z,16.6
2023-04-17T03:39:12.473Z,16.6
2023-04-17T03:40:20.549Z,16.6
2023-04-17T03:41:29.085Z,17.700001
2023-04-17T03:42:37.447Z,17.700001
2023-04-17T03:43:45.771Z,17.700001
2023-04-17T03:44:54.327Z,19.1
2023-04-17T03:46:02.698Z,19.1
2023-04-17T03:47:11.010Z,19.1
2023-04-17T03:48:19.570Z,18.9
2023-04-17T03:49:27.912Z,18.9
2023-04-17T03:50:36.240Z,18.9
2023-04-17T03:51:44.785Z,19.4
2023-04-17T03:52:53.281Z,19.4
2023-04-17T03:54:01.435Z,19.4
2023-04-17T03:55:09.993Z,20
2023-04-17T03:56:18.329Z,20
2023-04-17T03:57:26.661Z,20
2023-04-17T03:58:35.221Z,21
2023-04-17T03:59:43.586Z,21
2023-04-17T04:00:51.940Z,21
2023-04-17T04:02:00.528Z,21.299999
2023-04-17T04:03:08.941Z,21.299999
2023-04-17T04:04:17.317Z,21.299999
2023-04-17T04:05:25.716Z,21
2023-04-17T04:06:34.018Z,21
2023-04-17T04:07:42.362Z,21
2023-04-17T04:08:50.931Z,20
2023-04-17T04:09:59.256Z,20
2023-04-17T04:11:07.598Z,20
2023-04-17T04:12:16.120Z,19.299999
2023-04-17T04:13:24.458Z,19.299999
2023-04-17T04:14:32.803Z,19.299999
2023-04-17T04:15:41.351Z,19.299999
2023-04-17T04:16:49.694Z,19.299999
2023-04-17T04:17:58.067Z,19.299999
2023-04-17T04:19:06.564Z,19.5
2023-04-17T04:20:14.901Z,19.5
2023-04-17T04:21:23.225Z,19.5
2023-04-17T04:22:31.759Z,18.6
2023-04-17T04:23:40.090Z,18.6
2023-04-17T04:24:48.441Z,18.6
2023-04-17T04:25:57.032Z,19
2023-04-17T04:27:05.432Z,19
2023-04-17T04:28:13.677Z,19
2023-04-17T04:29:22.228Z,18.200001
2023-04-17T04:30:30.553Z,18.200001
2023-04-17T04:31:38.901Z,18.200001
2023-04-17T04:32:47.455Z,18.1
2023-04-17T04:33:55.775Z,18.1
2023-04-17T04:35:04.116Z,18.1
2023-04-17T04:36:12.672Z,17.700001
2023-04-17T04:37:21.016Z,17.700001
2023-04-17T04:38:29.349Z,17.700001
2023-04-17T04:39:37.943Z,19.200001
2023-04-17T04:40:46.249Z,19.200001
2023-04-17T04:41:54.539Z,19.200001
2023-04-17T04:43:03.079Z,17.9
2023-04-17T04:44:11.417Z,17.9
2023-04-17T04:45:19.759Z,17.9
2023-04-17T04:46:28.325Z,17.6
2023-04-17T04:47:36.732Z,17.6
2023-04-17T04:48:44.978Z,17.6
2023-04-17T04:49:53.526Z,17.700001
2023-04-17T04:51:01.864Z,17.700001
2023-04-17T04:52:10.191Z,17.700001
2023-04-17T04:53:18.756Z,16.700001
2023-04-17T04:54:27.080Z,16.700001
2023-04-17T04:55:35.408Z,16.700001
2023-04-17T04:56:43.970Z,15.9
2023-04-17T04:57:52.280Z,15.9
2023-04-17T04:59:00.611Z,15.9
2023-04-17T05:00:09.169Z,15.9
2023-04-17T05:01:17.614Z,15.9
2023-04-17T05:02:25.916Z,15.9
2023-04-17T05:03:34.532Z,14
2023-04-17T05:04:42.766Z,14
2023-04-17T05:05:51.076Z,14
2023-04-17T05:06:59.618Z,13.5
2023-04-17T05:08:07.985Z,13.5
2023-04-17T05:09:17.175Z,13.5
2023-04-17T05:10:24.833Z,11.7
2023-04-17T05:11:33.154Z,11.7
2023-04-17T05:12:41.620Z,11.7
2023-04-17T05:13:50.076Z,11.3
2023-04-17T05:14:58.368Z,11.3
2023-04-17T05:16:06.699Z,11.3
2023-04-17T05:17:15.225Z,9.9
2023-04-17T05:18:23.573Z,9.9
2023-04-17T05:19:31.909Z,9.9
2023-04-17T05:20:40.452Z,8.7
2023-04-17T05:21:48.794Z,8.7
2023-04-17T05:22:57.113Z,8.7
2023-04-17T05:24:05.659Z,8.3
2023-04-17T05:25:13.986Z,8.3
2023-04-17T05:26:22.324Z,8.3
2023-04-17T05:27:30.845Z,7.7
2023-04-17T05:28:39.204Z,7.7
2023-04-17T05:29:47.509Z,7.7
2023-04-17T05:30:56.054Z,6.8
2023-04-17T05:32:04.410Z,6.8
2023-04-17T05:33:12.727Z,6.8
2023-04-17T05:34:21.257Z,6.7
2023-04-17T05:35:29.602Z,6.7
2023-04-17T05:36:37.913Z,6.7
2023-04-17T05:37:46.465Z,6.8
2023-04-17T05:38:54.793Z,6.8
2023-04-17T05:40:03.123Z,6.8
2023-04-17T05:41:11.658Z,6.9
2023-04-17T05:42:20.042Z,6.9
2023-04-17T05:43:28.371Z,6.9
2023-04-17T05:44:36.955Z,5.8
2023-04-17T05:45:45.285Z,5.8
2023-04-17T05:46:53.560Z,5.8
2023-04-17T05:48:02.142Z,6.6
2023-04-17T05:49:10.514Z,6.6
2023-04-17T05:50:18.752Z,6.6
2023-04-17T05:51:27.285Z,5.7
2023-04-17T05:52:36.482Z,5.7
2023-04-17T05:53:43.936Z,5.7
2023-04-17T05:54:52.502Z,5.7
2023-04-17T05:56:00.826Z,5.7
2023-04-17T05:57:09.165Z,5.7
2023-04-17T05:58:23.435Z,6.1
2023-04-17T05:59:26.029Z,6.1
2023-04-17T06:00:34.385Z,6.1
2023-04-17T06:01:42.895Z,5.1
2023-04-17T06:02:51.277Z,5.1
2023-04-17T06:04:00.367Z,5.1
2023-04-17T06:05:08.184Z,4.8
2023-04-17T06:06:16.420Z,4.8
2023-04-17T06:07:24.819Z,4.8
2023-04-17T06:08:33.362Z,4.9
2023-04-17T06:09:41.688Z,4.9
2023-04-17T06:10:50.022Z,4.9
2023-04-17T06:11:58.546Z,5.6
2023-04-17T06:13:06.886Z,5.6
2023-04-17T06:14:15.230Z,5.6
2023-04-17T06:15:23.748Z,4.8
2023-04-17T06:16:32.130Z,4.8
2023-04-17T06:17:40.472Z,4.8
2023-04-17T06:18:48.957Z,4.7
2023-04-17T06:19:57.296Z,4.7
2023-04-17T06:21:05.622Z,4.7
2023-04-17T06:22:14.159Z,4.6
2023-04-17T06:23:22.499Z,4.6
2023-04-17T06:24:30.839Z,4.6
2023-04-17T06:25:39.392Z,4.8
2023-04-17T06:26:47.714Z,4.8
2023-04-17T06:27:56.053Z,4.8
2023-04-17T06:29:04.606Z,4.7
2023-04-17T06:30:12.917Z,4.7
2023-04-17T06:31:21.321Z,4.7
2023-04-17T06:32:29.969Z,4.7
2023-04-17T06:33:38.196Z,4.7
2023-04-17T06:35:55.149Z,4.9
2023-04-17T06:37:03.489Z,4.9
2023-04-17T06:38:11.831Z,4.9
2023-04-17T06:39:20.384Z,4
2023-04-17T06:40:28.732Z,4
2023-04-17T06:41:37.066Z,4
2023-04-17T06:42:45.643Z,3.8
2023-04-17T06:43:53.971Z,3.8
2023-04-17T06:45:02.316Z,3.8
2023-04-17T06:46:10.854Z,4.9
2023-04-17T06:47:19.246Z,4.9
2023-04-17T06:48:27.586Z,4.9
2023-04-17T06:49:36.106Z,4.3
2023-04-17T06:50:44.468Z,4.3
2023-04-17T06:51:52.806Z,4.3
2023-04-17T06:53:01.372Z,4.2
2023-04-17T06:54:09.704Z,4.2
2023-04-17T06:55:18.066Z,4.2
2023-04-17T06:56:26.598Z,4.5
2023-04-17T06:57:34.932Z,4.5
2023-04-17T06:58:43.257Z,4.5
2023-04-17T06:59:51.792Z,5.2
2023-04-17T07:01:00.143Z,5.2
2023-04-17T07:02:08.553Z,5.2
2023-04-17T07:03:17.158Z,5
2023-04-17T07:04:25.445Z,5
2023-04-17T07:05:33.712Z,5
2023-04-17T07:06:42.250Z,4.2
2023-04-17T07:07:50.592Z,4.2
2023-04-17T07:08:58.932Z,4.2
2023-04-17T07:10:07.476Z,4.5
2023-04-17T07:11:15.813Z,4.5
2023-04-17T07:12:24.167Z,4.5
2023-04-17T07:13:32.704Z,4.8
2023-04-17T07:14:41.042Z,4.8
2023-04-17T07:15:49.413Z,4.8
2023-04-17T07:16:57.960Z,16.700001
2023-04-17T07:18:06.340Z,16.700001
2023-04-17T07:19:14.743Z,16.700001
2023-04-17T07:20:23.175Z,4.7
2023-04-17T07:21:31.488Z,4.7
2023-04-17T07:22:39.835Z,4.7
2023-04-17T07:23:48.384Z,4.8
2023-04-17T07:24:56.712Z,4.8
2023-04-17T07:26:05.072Z,4.8
2023-04-17T07:27:13.585Z,5.9
2023-04-17T07:28:21.935Z,5.9
2023-04-17T07:29:30.246Z,5.9
2023-04-17T07:30:38.798Z,4.4
2023-04-17T07:31:47.203Z,4.4
2023-04-17T07:32:55.510Z,4.4
2023-04-17T07:34:03.999Z,4.7
2023-04-17T07:35:12.333Z,4.7
2023-04-17T07:36:20.717Z,4.7
2023-04-17T07:37:29.259Z,5
2023-04-17T07:38:39.153Z,5
2023-04-17T07:39:45.914Z,5
2023-04-17T07:40:54.466Z,4.7
2023-04-17T07:42:02.805Z,4.7
2023-04-17T07:43:11.146Z,4.7
2023-04-17T07:44:19.673Z,4
2023-04-17T07:45:28.823Z,4
2023-04-17T07:46:37.198Z,4
2023-04-17T07:47:45.737Z,4.8
2023-04-17T07:48:54.034Z,4.8
2023-04-17T07:50:02.387Z,4.8
2023-04-17T07:51:10.929Z,4.1
2023-04-17T07:52:19.861Z,4.1
2023-04-17T07:53:28.196Z,4.1
2023-04-17T07:54:36.739Z,4
2023-04-17T07:55:45.067Z,4
2023-04-17T07:56:53.397Z,4
2023-04-17T07:58:01.979Z,3.1
2023-04-17T07:59:10.459Z,3.1
2023-04-17T08:00:18.642Z,3.1
2023-04-17T08:01:27.177Z,3.3
2023-04-17T08:02:35.714Z,3.3
2023-04-17T08:03:44.043Z,3.3
2023-04-17T08:04:52.672Z,5.8
2023-04-17T08:06:00.804Z,5.8
2023-04-17T08:07:09.138Z,5.8
2023-04-17T08:08:17.735Z,3.8
2023-04-17T08:09:26.050Z,3.8
2023-04-17T08:10:34.385Z,3.8
2023-04-17T08:11:56.045Z,3.2
2023-04-17T08:12:51.289Z,3.2
2023-04-17T08:13:59.627Z,3.2
2023-04-17T08:15:08.210Z,2.7
2023-04-17T08:16:16.529Z,2.7
2023-04-17T08:17:24.894Z,2.7
2023-04-17T08:18:33.444Z,3.5
2023-04-17T08:19:42.402Z,3.5
2023-04-17T08:20:50.732Z,3.5
2023-04-17T08:21:59.259Z,2.4
2023-04-17T08:23:07.613Z,2.4
2023-04-17T08:24:17.932Z,2.4
2023-04-17T08:25:24.464Z,2.6
2023-04-17T08:26:32.807Z,2.6
2023-04-17T08:27:41.148Z,2.6
2023-04-17T08:28:49.687Z,3
2023-04-17T08:29:58.023Z,3
2023-04-17T08:31:06.433Z,3
2023-04-17T08:32:15.547Z,3
2023-04-17T08:33:23.390Z,3
2023-04-17T08:34:31.744Z,3
2023-04-17T08:35:40.281Z,2.5
2023-04-17T08:36:48.635Z,2.5
2023-04-17T08:37:56.978Z,2.5
2023-04-17T08:39:05.614Z,3
2023-04-17T08:40:13.958Z,3
2023-04-17T08:41:22.263Z,3
2023-04-17T08:42:30.815Z,3.3
2023-04-17T08:43:39.139Z,3.3
2023-04-17T08:44:47.473Z,3.3
2023-04-17T08:45:56.091Z,5
2023-04-17T08:47:04.345Z,5
2023-04-17T08:48:12.665Z,5
2023-04-17T08:49:21.249Z,5.3
2023-04-17T08:50:29.577Z,5.3
2023-04-17T08:51:37.923Z,5.3
2023-04-17T08:52:46.515Z,8.6
2023-04-17T08:53:54.813Z,8.6
2023-04-17T08:55:03.148Z,8.6
2023-04-17T08:56:11.707Z,5.5
2023-04-17T08:57:20.092Z,5.5
2023-04-17T08:58:28.709Z,5.5
2023-04-17T08:59:36.972Z,5.6
2023-04-17T09:00:45.309Z,5.6
2023-04-17T09:01:53.659Z,5.6
2023-04-17T09:03:02.308Z,10.4
2023-04-17T09:04:10.695Z,10.4
2023-04-17T09:05:18.844Z,10.4
2023-04-17T09:06:27.433Z,6.6
2023-04-17T09:07:35.793Z,6.6
2023-04-17T09:08:44.097Z,6.6
2023-04-17T09:09:52.672Z,6.1
2023-04-17T09:11:00.972Z,6.1
2023-04-17T09:12:09.333Z,6.1
2023-04-17T09:13:17.836Z,6.7
2023-04-17T09:14:26.678Z,6.7
2023-04-17T09:15:34.527Z,6.7
2023-04-17T09:16:43.057Z,6.7
2023-04-17T09:17:51.448Z,6.7
2023-04-17T09:18:59.752Z,6.7
2023-04-17T09:20:08.292Z,6.3
2023-04-17T09:21:16.678Z,6.3
2023-04-17T09:22:24.965Z,6.3
2023-04-17T09:23:33.502Z,6
2023-04-17T09:24:41.830Z,6
2023-04-17T09:25:50.177Z,6
2023-04-17T09:26:58.735Z,5
2023-04-17T09:28:07.092Z,5
2023-04-17T09:29:15.580Z,5
2023-04-17T09:30:23.945Z,5
2023-04-17T09:31:32.414Z,5
2023-04-17T09:32:40.641Z,5
2023-04-17T09:33:49.145Z,5.6
2023-04-17T09:34:57.488Z,5.6
2023-04-17T09:36:05.815Z,5.6
2023-04-17T09:37:14.368Z,5.8
2023-04-17T09:38:22.686Z,5.8
2023-04-17T09:39:31.031Z,5.8
2023-04-17T09:40:39.564Z,7.7
2023-04-17T09:41:47.915Z,7.7
2023-04-17T09:42:56.236Z,7.7
2023-04-17T09:44:04.906Z,6.2
2023-04-17T09:45:13.087Z,6.2
2023-04-17T09:46:21.426Z,6.2
2023-04-17T09:47:30.064Z,7.3
2023-04-17T09:48:38.325Z,7.3
2023-04-17T09:49:46.650Z,7.3
2023-04-17T09:50:55.196Z,6.5
2023-04-17T09:52:03.629Z,6.5
2023-04-17T09:53:11.869Z,6.5
2023-04-17T09:54:20.401Z,7.3
2023-04-17T09:55:28.729Z,7.3
2023-04-17T09:56:37.080Z,7.3
2023-04-17T09:57:45.628Z,7.1
2023-04-17T09:58:53.980Z,7.1
2023-04-17T10:00:02.336Z,7.1
2023-04-17T10:01:10.889Z,6.8
2023-04-17T10:02:19.274Z,6.8
2023-04-17T10:03:27.602Z,6.8
2023-04-17T10:04:36.159Z,9.4
2023-04-17T10:05:44.437Z,9.4
2023-04-17T10:06:52.763Z,9.4
2023-04-17T10:08:01.303Z,10.6
2023-04-17T10:09:09.645Z,10.6
2023-04-17T10:10:18.010Z,10.6
2023-04-17T10:11:26.525Z,10.3
2023-04-17T10:12:35.063Z,10.3
2023-04-17T10:13:43.186Z,10.3
2023-04-17T10:14:51.725Z,10.1
2023-04-17T10:16:00.144Z,10.1
2023-04-17T10:17:08.416Z,10.1
2023-04-17T10:18:16.999Z,10.3
2023-04-17T10:19:26.536Z,10.3
2023-04-17T10:20:34.896Z,10.3
2023-04-17T10:21:43.441Z,10.3
2023-04-17T10:22:51.856Z,10.3
2023-04-17T10:24:00.126Z,10.3
2023-04-17T10:25:08.661Z,12.1
2023-04-17T10:26:17.005Z,12.1
2023-04-17T10:27:25.328Z,12.1
2023-04-17T10:28:33.893Z,10.4
2023-04-17T10:29:42.237Z,10.4
2023-04-17T10:30:50.584Z,10.4
2023-04-17T10:31:59.151Z,10.1
2023-04-17T10:33:08.446Z,10.1
2023-04-17T10:34:15.781Z,10.1
2023-04-17T10:35:24.373Z,10.4
2023-04-17T10:36:32.691Z,10.4
2023-04-17T10:37:41.010Z,10.4
2023-04-17T10:38:49.559Z,11.1
2023-04-17T10:39:57.907Z,11.1
2023-04-17T10:41:06.253Z,11.1
2023-04-17T10:42:14.788Z,18.4
2023-04-17T10:43:23.124Z,18.4
2023-04-17T10:44:31.463Z,18.4
2023-04-17T10:45:40.098Z,14.7
2023-04-17T10:46:48.459Z,14.7
2023-04-17T10:47:56.920Z,14.7
2023-04-17T10:49:05.317Z,18.6
2023-04-17T10:50:13.657Z,18.6
2023-04-17T10:51:22.006Z,18.6
2023-04-17T10:52:30.535Z,14.1
2023-04-17T10:53:38.866Z,14.1
2023-04-17T10:54:47.211Z,14.1
2023-04-17T10:55:55.757Z,10.6
2023-04-17T10:57:04.074Z,10.6
2023-04-17T10:58:12.407Z,10.6
2023-04-17T10:59:20.970Z,10.2
2023-04-17T11:00:29.297Z,10.2
2023-04-17T11:01:37.682Z,10.2
2023-04-17T11:02:46.198Z,10.7
2023-04-17T11:03:54.534Z,10.7
2023-04-17T11:05:02.906Z,10.7
2023-04-17T11:06:11.406Z,28
2023-04-17T11:07:19.743Z,28
2023-04-17T11:08:28.077Z,28
2023-04-17T11:09:36.619Z,16.6
2023-04-17T11:10:44.979Z,16.6
2023-04-17T11:11:53.320Z,16.6
2023-04-17T11:13:01.877Z,20.299999
2023-04-17T11:14:11.097Z,20.299999
2023-04-17T11:15:18.545Z,20.299999
2023-04-17T11:16:27.166Z,18.799999
2023-04-17T11:17:35.406Z,18.799999
2023-04-17T11:18:43.723Z,18.799999
2023-04-17T11:19:52.347Z,14.1
2023-04-17T11:21:00.646Z,14.1
2023-04-17T11:22:08.975Z,14.1
2023-04-17T11:23:17.555Z,15.8
2023-04-17T11:24:25.848Z,15.8
2023-04-17T11:25:34.720Z,15.8
2023-04-17T11:26:42.766Z,16.799999
2023-04-17T11:27:51.107Z,16.799999
2023-04-17T11:28:59.433Z,16.799999
2023-04-17T11:30:08.013Z,18.299999
2023-04-17T11:31:18.594Z,18.299999
2023-04-17T11:32:24.681Z,18.299999
2023-04-17T11:33:33.208Z,17.700001
2023-04-17T11:34:41.591Z,17.700001
2023-04-17T11:35:49.921Z,17.700001
2023-04-17T11:36:58.442Z,18.5
2023-04-17T11:38:06.759Z,18.5
2023-04-17T11:39:15.116Z,18.5
2023-04-17T11:40:23.746Z,20.5
2023-04-17T11:41:32.100Z,20.5
2023-04-17T11:42:40.443Z,20.5
2023-04-17T11:43:48.999Z,20.5
2023-04-17T11:44:57.383Z,20.5
2023-04-17T11:46:06.147Z,20.5
2023-04-17T11:47:14.675Z,21.6
2023-04-17T11:48:23.005Z,21.6
2023-04-17T11:49:31.382Z,21.6
2023-04-17T11:50:39.927Z,21.700001
2023-04-17T11:51:48.302Z,21.700001
2023-04-17T11:52:56.591Z,21.700001
2023-04-17T11:54:05.139Z,21.700001
2023-04-17T11:55:13.470Z,21.700001
2023-04-17T11:56:21.819Z,21.700001
2023-04-17T11:57:30.384Z,21.700001
2023-04-17T11:58:38.711Z,21.700001
2023-04-17T11:59:47.068Z,21.700001
2023-04-17T12:00:55.606Z,20.9
2023-04-17T12:02:04.012Z,20.9
2023-04-17T12:03:12.348Z,20.9
2023-04-17T12:04:21.912Z,20.299999
2023-04-17T12:05:29.210Z,20.299999
2023-04-17T12:06:37.503Z,20.299999
2023-04-17T12:07:46.033Z,20.700001
2023-04-17T12:08:54.349Z,20.700001
2023-04-17T12:10:02.703Z,20.700001
2023-04-17T12:11:11.914Z,21.1
2023-04-17T12:12:20.964Z,21.1
2023-04-17T12:13:29.304Z,21.1
2023-04-17T12:14:37.839Z,21.6
2023-04-17T12:15:46.237Z,21.6
2023-04-17T12:16:54.525Z,21.6
2023-04-17T12:18:03.052Z,21.4
2023-04-17T12:19:11.377Z,21.4
2023-04-17T12:20:19.707Z,21.4
2023-04-17T12:21:28.226Z,21.799999
2023-04-17T12:22:36.562Z,21.799999
2023-04-17T12:23:44.922Z,21.799999
2023-04-17T12:24:53.425Z,20.4
2023-04-17T12:26:01.801Z,20.4
2023-04-17T12:27:10.109Z,20.4
2023-04-17T12:28:18.670Z,20.799999
2023-04-17T12:30:35.316Z,20.799999
2023-04-17T12:31:43.906Z,21.9
2023-04-17T12:32:52.277Z,21.9
2023-04-17T12:34:00.555Z,21.9
2023-04-17T12:35:09.082Z,21.799999
2023-04-17T12:36:17.483Z,21.799999
2023-04-17T12:37:25.777Z,21.799999
2023-04-17T12:38:35.026Z,22.5
2023-04-17T12:39:43.387Z,22.5
2023-04-17T12:40:51.710Z,22.5
2023-04-17T12:42:00.211Z,22.299999
2023-04-17T12:43:08.560Z,22.299999
2023-04-17T12:44:16.901Z,22.299999
2023-04-17T12:45:25.464Z,23.5
2023-04-17T12:46:33.760Z,23.5
2023-04-17T12:47:42.151Z,23.5
2023-04-17T12:48:50.636Z,24.5
2023-04-17T12:49:58.969Z,24.5
2023-04-17T12:51:07.311Z,24.5
2023-04-17T12:52:15.851Z,24.299999
2023-04-17T12:53:24.184Z,24.299999
2023-04-17T12:54:32.516Z,24.299999
2023-04-17T12:55:41.113Z,23.799999
2023-04-17T12:56:49.387Z,23.799999
2023-04-17T12:57:57.730Z,23.799999
2023-04-17T12:59:06.291Z,24.1
2023-04-17T13:00:14.616Z,24.1
2023-04-17T13:01:22.966Z,24.1
2023-04-17T13:02:31.616Z,23.4
2023-04-17T13:03:39.952Z,23.4
2023-04-17T13:04:48.871Z,23.4
2023-04-17T13:05:56.772Z,24.5
2023-04-17T13:07:05.131Z,24.5
2023-04-17T13:08:13.467Z,24.5
2023-04-17T13:09:22.029Z,24.9
2023-04-17T13:10:30.333Z,24.9
2023-04-17T13:11:38.700Z,24.9
2023-04-17T13:12:47.274Z,26.4
2023-04-17T13:13:55.654Z,26.4
2023-04-17T13:15:03.946Z,26.4
2023-04-17T13:16:12.527Z,25.5
2023-04-17T13:17:20.838Z,25.5
2023-04-17T13:18:29.168Z,25.5
2023-04-17T13:19:37.729Z,24.9
2023-04-17T13:20:46.056Z,24.9
2023-04-17T13:21:54.379Z,24.9
2023-04-17T13:23:02.934Z,25.5
2023-04-17T13:24:11.239Z,25.5
2023-04-17T13:25:19.605Z,25.5
2023-04-17T13:26:28.185Z,24.4
2023-04-17T13:27:36.555Z,24.4
2023-04-17T13:28:44.863Z,24.4
2023-04-17T13:29:53.388Z,24.1
2023-04-17T13:31:01.768Z,24.1
2023-04-17T13:32:10.097Z,24.1
2023-04-17T13:33:18.655Z,23.299999
2023-04-17T13:34:26.991Z,23.299999
2023-04-17T13:35:35.318Z,23.299999
2023-04-17T13:36:43.851Z,23
2023-04-17T13:37:52.192Z,23
2023-04-17T13:39:00.541Z,23
2023-04-17T13:40:09.093Z,22.6
2023-04-17T13:41:17.445Z,22.6
2023-04-17T13:42:25.795Z,22.6
2023-04-17T13:43:34.421Z,22.700001
2023-04-17T13:44:42.678Z,22.700001
2023-04-17T13:45:52.282Z,22.700001
2023-04-17T13:46:59.557Z,20.9
2023-04-17T13:48:08.078Z,20.9
2023-04-17T13:49:16.273Z,20.9
2023-04-17T13:50:24.840Z,19.700001
2023-04-17T13:51:33.180Z,19.700001
2023-04-17T13:52:41.520Z,19.700001
2023-04-17T13:53:50.081Z,18.4
2023-04-17T13:54:58.413Z,18.4
2023-04-17T13:56:06.735Z,18.4
2023-04-17T13:57:15.334Z,18
2023-04-17T13:58:23.692Z,18
2023-04-17T13:59:32.052Z,18
2023-04-17T14:00:40.570Z,17.9
2023-04-17T14:01:48.953Z,17.9
2023-04-17T14:02:57.321Z,17.9
2023-04-17T14:04:05.871Z,16.4
2023-04-17T14:05:14.186Z,16.4
2023-04-17T14:06:22.454Z,16.4
2023-04-17T14:07:30.992Z,16.799999
2023-04-17T14:08:39.313Z,16.799999
2023-04-17T14:09:47.668Z,16.799999
2023-04-17T14:10:56.204Z,17.6
2023-04-17T14:12:04.546Z,17.6
2023-04-17T14:13:12.872Z,17.6
2023-04-17T14:14:21.421Z,17.299999
2023-04-17T14:15:29.808Z,17.299999
2023-04-17T14:16:38.087Z,17.299999
2023-04-17T14:17:46.686Z,17
2023-04-17T14:18:55.149Z,17
2023-04-17T14:20:03.327Z,17
2023-04-17T14:21:11.882Z,17
2023-04-17T14:22:20.211Z,17
2023-04-17T14:23:28.579Z,17
2023-04-17T14:24:37.145Z,16.4
2023-04-17T14:25:45.485Z,16.4
2023-04-17T14:26:54.328Z,16.4
2023-04-17T14:28:02.889Z,17.4
2023-04-17T14:29:11.381Z,17.4
2023-04-17T14:30:19.560Z,17.4
2023-04-17T14:31:28.165Z,17.5
2023-04-17T14:32:36.478Z,17.5
2023-04-17T14:33:44.797Z,17.5
2023-04-17T14:34:53.343Z,17.1
2023-04-17T14:36:02.058Z,17.1
2023-04-17T14:37:10.048Z,17.1
2023-04-17T14:38:18.544Z,17.799999
2023-04-17T14:39:27.594Z,17.799999
2023-04-17T14:40:35.230Z,17.799999
2023-04-17T14:41:43.802Z,17.299999
2023-04-17T14:42:54.372Z,17.299999
2023-04-17T14:44:00.434Z,17.299999
2023-04-17T14:45:09.004Z,16.6
2023-04-17T14:46:17.383Z,16.6
2023-04-17T14:47:26.553Z,16.6
2023-04-17T14:48:38.563Z,20.799999
2023-04-17T14:49:42.549Z,20.799999
2023-04-17T14:50:50.882Z,20.799999
2023-04-17T14:51:59.435Z,33.200001
2023-04-17T14:53:07.765Z,33.200001
2023-04-17T14:54:16.101Z,33.200001
2023-04-17T14:55:24.676Z,25.799999
2023-04-17T14:56:33.009Z,25.799999
2023-04-17T14:57:41.349Z,25.799999
2023-04-17T14:58:49.897Z,22
2023-04-17T14:59:58.237Z,22
2023-04-17T15:01:06.615Z,22
2023-04-17T15:02:15.213Z,17.299999
2023-04-17T15:03:23.688Z,17.299999
2023-04-17T15:04:31.877Z,17.299999
2023-04-17T15:05:40.419Z,18.1